Time;durP1;ratioP1;P1;durP2;ratioP2;P2;SDS_P1;SDS_P2;PMS_P1;PMS_P2;Temp;Humidity;BMP_temperature;BMP_pressure;BME280_temperature;BME280_humidity;BME280_pressure;Samples;Min_cycle;Max_cycle;Signal;HPM_P1;HPM_P2
2022/01/21 00:02:26;;;;;;;8.45;2.75;;;;;;;-2.08;68.42;99563.80;1690019;84;25842;-72
2022/01/21 00:04:53;;;;;;;5.87;3.08;;;;;;;-2.06;68.50;99571.48;1690000;83;25734;-72
2022/01/21 00:07:19;;;;;;;6.80;2.90;;;;;;;-2.08;68.26;99570.43;1690013;84;27332;-72
2022/01/21 00:09:47;;;;;;;9.05;3.17;;;;;;;-2.07;68.37;99568.58;1685947;84;25758;-72
2022/01/21 00:12:13;;;;;;;9.28;3.50;;;;;;;-2.12;68.11;99577.24;1689990;84;25719;-72
2022/01/21 00:14:40;;;;;;;8.35;3.85;;;;;;;-2.11;68.50;99575.38;1689705;84;25751;-71
2022/01/21 00:17:07;;;;;;;9.18;2.80;;;;;;;-2.13;68.55;99584.93;1689981;84;25696;-73
2022/01/21 00:19:38;;;;;;;6.95;3.02;;;;;;;-2.14;68.53;99591.80;1689924;84;27898;-73
2022/01/21 00:30:09;;;;;;;10.95;2.90;;;;;;;-2.15;68.53;99591.50;1663058;86;25780;-73
2022/01/21 00:32:34;;;;;;;5.25;2.55;;;;;;;-2.15;68.84;99599.45;1657230;85;27246;-72
2022/01/21 00:35:01;;;;;;;6.30;2.60;;;;;;;-2.16;68.63;99598.66;1680320;85;25577;-74
2022/01/21 00:37:28;;;;;;;7.03;3.22;;;;;;;-2.15;68.55;99587.53;1680462;85;25857;-72
2022/01/21 00:39:57;;;;;;;4.55;3.20;;;;;;;-2.17;68.18;99581.14;1680387;85;26309;-72
2022/01/21 00:44:52;;;;;;;8.83;3.80;;;;;;;-2.17;68.40;99601.55;1657246;85;27288;-73
2022/01/21 00:47:19;;;;;;;8.40;3.80;;;;;;;-2.18;68.26;99598.60;1680635;85;25534;-73
2022/01/21 00:49:45;;;;;;;7.60;3.17;;;;;;;-2.19;68.14;99597.02;1691843;84;25696;-74
2022/01/21 00:52:12;;;;;;;11.63;3.70;;;;;;;-2.20;68.28;99592.75;1689414;84;26199;-74
2022/01/21 00:54:40;;;;;;;11.28;3.85;;;;;;;-2.22;68.31;99587.69;1695546;84;25719;-74
2022/01/21 00:57:06;;;;;;;8.95;3.42;;;;;;;-2.23;68.15;99586.09;1689422;84;27357;-74
2022/01/21 00:59:33;;;;;;;9.48;3.17;;;;;;;-2.24;68.03;99588.98;1693359;84;25658;-74
2022/01/21 01:01:59;;;;;;;5.97;2.10;;;;;;;-2.26;68.11;99589.23;1686355;84;25383;-74
2022/01/21 01:04:26;;;;;;;7.25;3.05;;;;;;;-2.27;68.08;99586.28;1695468;84;25804;-74
2022/01/21 01:06:52;;;;;;;6.40;3.62;;;;;;;-2.30;67.96;99582.28;1691496;84;25641;-74
2022/01/21 01:09:19;;;;;;;7.75;3.83;;;;;;;-2.31;68.07;99579.88;1696815;84;27343;-74
2022/01/21 01:12:09;;;;;;;10.18;3.00;;;;;;;-2.33;67.87;99577.47;1691525;84;25587;-74
2022/01/21 01:19:57;;;;;;;6.33;3.33;;;;;;;-2.36;67.52;99579.80;1691745;84;25763;-74
2022/01/21 01:22:28;;;;;;;7.20;4.10;;;;;;;-2.37;67.31;99573.67;1691240;84;27311;-74
2022/01/21 01:27:38;;;;;;;9.63;3.87;;;;;;;-2.40;67.51;99583.45;1691577;84;25639;-74
2022/01/21 01:30:06;;;;;;;9.53;3.05;;;;;;;-2.42;67.60;99584.19;1691653;84;25779;-74
2022/01/21 01:32:33;;;;;;;9.33;2.60;;;;;;;-2.43;66.81;99583.92;1697137;84;25394;-72
2022/01/21 01:35:00;;;;;;;5.85;2.65;;;;;;;-2.44;67.49;99589.72;1691669;84;27365;-73
2022/01/21 01:37:38;;;;;;;8.08;2.98;;;;;;;-2.47;67.50;99596.02;1691526;84;25656;-73
2022/01/21 01:40:15;;;;;;;8.53;3.65;;;;;;;-2.50;67.14;99589.37;1694801;83;25567;-73
2022/01/21 01:50:52;;;;;;;5.87;3.35;;;;;;;-2.56;67.20;99574.44;1691668;84;25545;-74
2022/01/21 01:53:27;;;;;;;6.62;3.02;;;;;;;-2.58;67.11;99573.87;1691569;84;25601;-74
2022/01/21 01:55:55;;;;;;;5.67;2.70;;;;;;;-2.59;67.26;99571.47;1690675;84;25857;-73
2022/01/21 01:58:21;;;;;;;5.40;2.92;;;;;;;-2.60;67.29;99552.14;1691674;84;25671;-73
2022/01/21 02:00:48;;;;;;;4.90;2.40;;;;;;;-2.62;66.74;99562.17;1691776;84;27261;-73
2022/01/21 02:03:16;;;;;;;5.67;2.80;;;;;;;-2.63;67.26;99573.27;1691542;84;25382;-73
2022/01/21 02:05:43;;;;;;;8.65;2.72;;;;;;;-2.64;67.18;99566.87;1691567;84;25578;-73
2022/01/21 02:08:11;;;;;;;5.12;2.77;;;;;;;-2.65;66.81;99555.50;1691714;84;25714;-73
2022/01/21 02:10:40;;;;;;;7.35;2.98;;;;;;;-2.65;67.30;99562.64;1691615;84;25583;-72
2022/01/21 02:13:19;;;;;;;7.47;2.60;;;;;;;-2.66;67.04;99547.26;1691809;84;27328;-72
2022/01/21 02:15:38;;;;;;;6.92;2.42;;;;;;;-2.64;67.20;99545.70;1694734;84;25809;-72
2022/01/21 02:23:35;;;;;;;3.45;1.77;;;;;;;-2.61;67.13;99548.40;1691672;84;25401;-73
2022/01/21 02:26:02;;;;;;;7.60;2.45;;;;;;;-2.60;67.06;99561.94;1691631;84;27289;-73
2022/01/21 02:28:29;;;;;;;4.33;2.10;;;;;;;-2.59;66.77;99547.63;1691615;84;25671;-73
2022/01/21 02:30:58;;;;;;;5.90;2.35;;;;;;;-2.59;66.80;99559.02;1691650;84;25595;-73
2022/01/21 02:33:27;;;;;;;4.50;2.55;;;;;;;-2.57;66.94;99550.84;1691684;84;25723;-73
2022/01/21 02:35:53;;;;;;;10.60;2.92;;;;;;;-2.57;66.92;99543.72;1691635;84;25698;-73
2022/01/21 02:38:20;;;;;;;4.08;2.27;;;;;;;-2.57;67.10;99562.75;1691644;84;27307;-73
2022/01/21 02:40:46;;;;;;;4.08;2.58;;;;;;;-2.57;66.79;99558.78;1691643;84;25637;-73
2022/01/21 02:43:14;;;;;;;9.45;2.30;;;;;;;-2.56;66.80;99553.78;1691592;84;25577;-74
2022/01/21 02:45:45;;;;;;;6.58;2.52;;;;;;;-2.57;66.97;99558.78;1691679;84;25767;-73
2022/01/21 02:48:10;;;;;;;7.10;2.45;;;;;;;-2.57;66.90;99559.61;1696525;83;25666;-73
2022/01/21 02:50:36;;;;;;;6.58;2.55;;;;;;;-2.57;66.37;99553.48;1691647;84;27371;-73
2022/01/21 02:55:48;;;;;;;6.37;2.08;;;;;;;-2.57;66.78;99550.34;1691699;84;25713;-73
2022/01/21 02:58:14;;;;;;;3.27;2.17;;;;;;;-2.57;67.06;99563.58;1691602;84;25735;-73
2022/01/21 03:00:40;;;;;;;4.30;2.40;;;;;;;-2.56;67.16;99552.45;1691650;84;25614;-73
2022/01/21 03:03:07;;;;;;;3.90;2.08;;;;;;;-2.56;67.13;99564.38;1691586;84;27437;-73
2022/01/21 03:05:35;;;;;;;4.85;2.12;;;;;;;-2.56;67.09;99569.14;1691540;84;25689;-73
2022/01/21 03:08:03;;;;;;;4.35;2.50;;;;;;;-2.56;67.11;99568.34;1691552;84;25559;-73
2022/01/21 03:10:29;;;;;;;4.85;2.22;;;;;;;-2.56;67.15;99566.48;1691557;84;25619;-73
2022/01/21 03:12:56;;;;;;;7.30;2.12;;;;;;;-2.55;67.32;99577.91;1691648;84;25446;-73
2022/01/21 03:15:22;;;;;;;3.12;2.00;;;;;;;-2.54;67.42;99569.70;1691488;84;27381;-73
2022/01/21 03:17:48;;;;;;;5.55;2.35;;;;;;;-2.54;67.38;99577.64;1670945;84;25706;-73
2022/01/21 03:20:15;;;;;;;8.08;2.30;;;;;;;-2.51;67.58;99562.59;1691675;84;25674;-73
2022/01/21 03:22:41;;;;;;;7.05;2.60;;;;;;;-2.48;67.53;99567.95;1690650;84;25830;-73
2022/01/21 03:25:09;;;;;;;3.87;2.00;;;;;;;-2.46;67.43;99574.59;1691625;84;25560;-73
2022/01/21 03:27:36;;;;;;;7.00;2.58;;;;;;;-2.42;67.55;99574.92;1691549;84;27313;-73
2022/01/21 03:30:08;;;;;;;7.65;2.40;;;;;;;-2.41;67.49;99559.84;1691545;84;26329;-73
2022/01/21 03:32:35;;;;;;;5.90;2.47;;;;;;;-2.41;67.42;99577.86;1691781;84;25655;-72
2022/01/21 03:35:01;;;;;;;3.58;1.98;;;;;;;-2.42;67.28;99574.13;1691655;84;26239;-72
2022/01/21 03:37:28;;;;;;;7.50;3.00;;;;;;;-2.42;67.65;99584.19;1691680;84;25514;-72
2022/01/21 03:39:54;;;;;;;6.53;2.42;;;;;;;-2.44;67.71;99599.52;1691731;84;27526;-72
2022/01/21 03:42:21;;;;;;;9.25;2.85;;;;;;;-2.44;67.74;99597.67;1691755;84;25403;-71
2022/01/21 03:44:47;;;;;;;8.25;2.20;;;;;;;-2.44;67.92;99598.99;1691747;84;25749;-72
2022/01/21 03:47:13;;;;;;;5.40;2.42;;;;;;;-2.42;67.97;99592.67;1675550;84;25533;-72
2022/01/21 03:49:48;;;;;;;6.60;2.33;;;;;;;-2.42;68.20;99588.16;1691741;84;25414;-72
2022/01/21 03:52:09;;;;;;;6.87;2.15;;;;;;;-2.42;68.32;99606.70;1695511;84;27511;-72
2022/01/21 03:54:35;;;;;;;6.45;1.92;;;;;;;-2.41;68.20;99594.28;1691615;84;25654;-72
2022/01/21 03:57:04;;;;;;;7.08;2.27;;;;;;;-2.41;68.16;99595.08;1691637;84;25626;-72
2022/01/21 03:59:30;;;;;;;9.20;2.87;;;;;;;-2.40;68.37;99598.52;1691644;84;25534;-72
2022/01/21 04:01:57;;;;;;;5.75;2.25;;;;;;;-2.40;68.29;99595.38;1691821;84;25640;-71
2022/01/21 04:04:23;;;;;;;5.97;2.40;;;;;;;-2.41;68.59;99592.43;1691772;84;27257;-72
2022/01/21 04:06:50;;;;;;;6.95;2.30;;;;;;;-2.40;68.77;99598.02;1691571;84;25742;-72
2022/01/21 04:09:16;;;;;;;6.60;2.22;;;;;;;-2.37;68.90;99612.61;1691633;84;25634;-71
2022/01/21 04:11:42;;;;;;;4.92;2.40;;;;;;;-2.35;68.96;99613.99;1691656;84;26304;-71
2022/01/21 04:14:09;;;;;;;5.17;2.30;;;;;;;-2.34;68.72;99589.09;1696925;84;25638;-72
2022/01/21 04:16:35;;;;;;;4.65;2.22;;;;;;;-2.34;69.11;99606.31;1691812;84;27305;-72
2022/01/21 04:19:02;;;;;;;4.53;1.92;;;;;;;-2.32;69.09;99602.89;1691662;84;25654;-72
2022/01/21 04:21:28;;;;;;;5.60;2.22;;;;;;;-2.28;69.38;99624.44;1691714;84;25476;-72
2022/01/21 04:23:55;;;;;;;4.53;2.10;;;;;;;-2.29;69.31;99599.77;1691724;84;25607;-71
2022/01/21 04:26:23;;;;;;;5.50;2.37;;;;;;;-2.25;69.24;99623.93;1691705;84;25815;-71
2022/01/21 04:28:49;;;;;;;4.15;2.67;;;;;;;-2.26;69.41;99623.14;1691763;84;27359;-72
2022/01/21 04:31:15;;;;;;;4.35;2.12;;;;;;;-2.22;69.29;99609.41;1691594;84;25618;-73
2022/01/21 04:33:42;;;;;;;6.08;2.42;;;;;;;-2.20;69.43;99613.41;1691681;84;25681;-72
2022/01/21 04:36:08;;;;;;;5.10;2.35;;;;;;;-2.20;69.42;99620.03;1691606;84;25759;-72
2022/01/21 04:38:36;;;;;;;5.53;2.27;;;;;;;-2.16;69.50;99625.16;1691729;84;25595;-72
2022/01/21 04:49:08;;;;;;;6.72;2.77;;;;;;;-2.13;69.72;99631.30;1691636;84;25697;-72
2022/01/21 04:51:41;;;;;;;5.62;3.27;;;;;;;-2.10;69.80;99637.42;1691682;84;25269;-72
2022/01/21 04:54:03;;;;;;;7.20;3.50;;;;;;;-2.08;70.00;99640.66;1690681;84;27456;-72
2022/01/21 04:56:29;;;;;;;8.60;3.60;;;;;;;-2.05;70.09;99642.54;1691581;84;25685;-72
2022/01/21 04:58:57;;;;;;;5.60;3.65;;;;;;;-2.03;70.07;99643.89;1691648;84;25391;-72
2022/01/21 05:01:23;;;;;;;10.60;3.25;;;;;;;-2.01;70.15;99641.00;1691611;84;25777;-72
2022/01/21 05:03:50;;;;;;;4.47;2.85;;;;;;;-1.97;70.27;99637.63;1691605;84;25630;-72
2022/01/21 05:06:17;;;;;;;11.63;3.62;;;;;;;-1.95;69.84;99659.92;1691654;84;27328;-72
2022/01/21 05:08:50;;;;;;;8.33;3.42;;;;;;;-1.92;70.25;99656.27;1691552;84;25660;-72
2022/01/21 05:11:14;;;;;;;10.53;3.10;;;;;;;-1.90;70.37;99656.82;1690752;84;25680;-72
2022/01/21 05:13:44;;;;;;;9.00;3.75;;;;;;;-1.86;70.36;99648.39;1696840;84;26170;-72
2022/01/21 05:16:29;;;;;;;6.90;3.30;;;;;;;-1.85;69.92;99644.17;1670576;84;25701;-72
2022/01/21 05:18:38;;;;;;;11.70;4.37;;;;;;;-1.84;70.21;99647.09;1688069;84;28039;-72
2022/01/21 05:21:04;;;;;;;5.42;2.95;;;;;;;-1.81;70.06;99651.12;1675426;84;25845;-72
2022/01/21 05:23:31;;;;;;;6.37;3.40;;;;;;;-1.79;70.23;99649.81;1692795;84;25481;-72
2022/01/21 05:25:57;;;;;;;6.35;3.40;;;;;;;-1.76;70.33;99659.14;1663227;86;25707;-72
2022/01/21 05:28:23;;;;;;;9.00;2.92;;;;;;;-1.77;70.20;99662.33;1663284;86;25401;-72
2022/01/21 05:30:50;;;;;;;9.80;3.85;;;;;;;-1.77;70.40;99663.66;1663331;86;27353;-72
2022/01/21 05:33:16;;;;;;;11.48;3.50;;;;;;;-1.76;70.52;99659.14;1663061;86;25444;-72
2022/01/21 05:35:43;;;;;;;7.12;3.10;;;;;;;-1.77;70.62;99664.16;1663261;86;25633;-72
2022/01/21 05:38:09;;;;;;;6.83;3.52;;;;;;;-1.77;70.76;99661.50;1670955;84;25732;-72
2022/01/21 05:40:37;;;;;;;6.60;3.12;;;;;;;-1.77;70.70;99669.46;1691660;84;25634;-73
2022/01/21 05:43:05;;;;;;;10.08;3.75;;;;;;;-1.78;70.59;99683.25;1675429;84;27383;-71
2022/01/21 05:48:16;;;;;;;3.98;2.85;;;;;;;-1.80;70.55;99668.11;1691718;84;25742;-72
2022/01/21 05:50:43;;;;;;;7.53;3.25;;;;;;;-1.81;70.56;99667.82;1691560;84;25687;-72
2022/01/21 05:53:11;;;;;;;8.30;2.83;;;;;;;-1.81;70.65;99668.35;1691561;84;25619;-73
2022/01/21 05:55:41;;;;;;;10.50;3.83;;;;;;;-1.82;70.83;99678.66;1696912;84;28055;-72
2022/01/21 05:58:06;;;;;;;7.65;3.58;;;;;;;-1.83;70.79;99678.40;1691352;84;25642;-72
2022/01/21 06:00:32;;;;;;;6.85;3.10;;;;;;;-1.84;70.89;99679.44;1691686;84;25599;-73
2022/01/21 06:02:59;;;;;;;9.00;3.42;;;;;;;-1.85;70.98;99674.66;1691545;84;26206;-71
2022/01/21 06:05:25;;;;;;;7.17;3.95;;;;;;;-1.84;70.90;99670.16;1670960;84;25652;-71
2022/01/21 06:07:52;;;;;;;9.40;2.95;;;;;;;-1.85;71.01;99677.84;1698290;84;27313;-72
2022/01/21 06:10:18;;;;;;;8.40;3.87;;;;;;;-1.85;71.02;99660.61;1704959;84;25624;-72
2022/01/21 06:12:45;;;;;;;9.85;4.05;;;;;;;-1.86;71.07;99668.27;1700944;84;25629;-72
2022/01/21 06:15:11;;;;;;;8.78;3.60;;;;;;;-1.86;71.13;99673.58;1704851;84;26224;-72
2022/01/21 06:17:38;;;;;;;10.58;3.98;;;;;;;-1.87;71.22;99695.31;1704609;84;25637;-72
2022/01/21 06:20:06;;;;;;;9.08;3.45;;;;;;;-1.89;71.21;99686.27;1704897;84;27415;-72
2022/01/21 06:22:33;;;;;;;6.55;3.15;;;;;;;-1.90;71.19;99679.35;1704605;84;25617;-72
2022/01/21 06:25:00;;;;;;;8.80;2.95;;;;;;;-1.91;71.24;99690.20;1705010;84;25471;-72
2022/01/21 06:27:27;;;;;;;8.10;3.25;;;;;;;-1.95;71.31;99687.23;1704654;84;25626;-72
2022/01/21 06:29:55;;;;;;;8.08;3.22;;;;;;;-1.93;71.46;99697.59;1704832;84;25480;-72
2022/01/21 06:32:22;;;;;;;5.55;2.50;;;;;;;-1.96;71.39;99698.89;1704733;84;27312;-73
2022/01/21 06:34:48;;;;;;;7.05;2.25;;;;;;;-1.96;71.43;99702.05;1653858;86;25674;-72
2022/01/21 06:37:15;;;;;;;6.40;2.20;;;;;;;-1.98;71.56;99708.91;1647611;87;25748;-71
2022/01/21 06:39:41;;;;;;;7.72;2.30;;;;;;;-1.99;71.64;99705.99;1647663;87;25686;-73
2022/01/21 06:42:08;;;;;;;8.18;1.85;;;;;;;-1.98;71.73;99708.11;1647694;87;25712;-72
2022/01/21 06:44:34;;;;;;;6.35;1.70;;;;;;;-1.97;71.82;99709.73;1654006;86;27370;-72
2022/01/21 06:47:01;;;;;;;5.33;1.90;;;;;;;-1.97;71.89;99709.73;1627105;88;25853;-72
2022/01/21 06:49:27;;;;;;;5.37;1.90;;;;;;;-1.98;71.98;99723.48;1627284;88;25787;-72
2022/01/21 06:51:54;;;;;;;3.55;1.82;;;;;;;-1.97;71.95;99730.41;1627274;88;26282;-71
2022/01/21 06:54:20;;;;;;;6.90;2.17;;;;;;;-1.98;72.07;99738.06;1627263;88;25721;-71
2022/01/21 06:56:47;;;;;;;7.37;2.30;;;;;;;-1.98;72.11;99730.11;1605612;88;28525;-71
2022/01/21 06:59:13;;;;;;;12.37;2.85;;;;;;;-1.96;72.20;99728.55;1605535;88;25747;-68
2022/01/21 07:01:40;;;;;;;11.80;3.33;;;;;;;-1.97;72.24;99736.23;1626987;88;25750;-71
2022/01/21 07:04:06;;;;;;;7.97;3.25;;;;;;;-1.96;72.34;99732.03;1627512;88;25808;-72
2022/01/21 07:06:33;;;;;;;7.35;3.20;;;;;;;-1.96;72.42;99729.88;1645511;86;25859;-71
2022/01/21 07:09:00;;;;;;;7.78;3.65;;;;;;;-1.95;72.49;99734.14;1640693;86;27351;-72
2022/01/21 07:11:26;;;;;;;7.83;3.35;;;;;;;-1.94;72.48;99735.73;1640024;86;25335;-72
2022/01/21 07:13:53;;;;;;;9.35;4.28;;;;;;;-1.92;72.55;99740.30;1638075;86;25361;-72
2022/01/21 07:16:19;;;;;;;9.53;4.10;;;;;;;-1.92;72.59;99749.05;1610816;87;26312;-72
2022/01/21 07:18:46;;;;;;;6.50;2.87;;;;;;;-1.90;72.66;99744.30;1710389;83;25605;-73
2022/01/21 07:21:12;;;;;;;7.35;3.08;;;;;;;-1.89;72.71;99759.68;1691588;84;27888;-73
2022/01/21 07:23:39;;;;;;;6.25;2.92;;;;;;;-1.88;72.78;99750.16;1705389;84;25738;-72
2022/01/21 07:26:05;;;;;;;7.72;3.60;;;;;;;-1.86;72.70;99753.91;1705411;84;25459;-72
2022/01/21 07:28:33;;;;;;;7.60;3.33;;;;;;;-1.84;72.78;99752.34;1718603;83;25731;-72
2022/01/21 07:31:00;;;;;;;8.50;2.98;;;;;;;-1.81;72.68;99754.52;1718775;83;25764;-72
2022/01/21 07:33:27;;;;;;;8.55;3.65;;;;;;;-1.78;72.73;99756.16;1718681;83;27428;-72
2022/01/21 07:35:54;;;;;;;7.35;3.40;;;;;;;-1.77;72.71;99756.45;1718729;83;25389;-72
2022/01/21 07:38:20;;;;;;;7.30;4.20;;;;;;;-1.68;72.62;99752.09;1718645;83;25729;-72
2022/01/21 07:40:47;;;;;;;8.55;3.40;;;;;;;-1.62;72.54;99763.04;1695730;83;26267;-72
2022/01/21 07:43:13;;;;;;;9.20;3.30;;;;;;;-1.56;72.72;99769.52;1718653;83;25583;-72
2022/01/21 07:45:40;;;;;;;6.47;3.42;;;;;;;-1.45;72.52;99763.83;1718686;83;27335;-72
2022/01/21 07:48:07;;;;;;;10.10;3.67;;;;;;;-1.38;72.23;99768.98;1718701;83;25729;-72
2022/01/21 07:50:36;;;;;;;8.45;3.83;;;;;;;-1.29;72.19;99766.71;1719705;83;25699;-72
2022/01/21 07:53:04;;;;;;;7.90;4.00;;;;;;;-1.27;71.99;99762.78;1720126;83;25664;-72
2022/01/21 07:55:30;;;;;;;7.20;3.60;;;;;;;-1.18;71.87;99773.25;1695857;83;25732;-72
2022/01/21 07:57:57;;;;;;;7.75;3.92;;;;;;;-1.05;71.76;99782.73;1720046;83;27911;-72
2022/01/21 08:00:24;;;;;;;7.97;3.65;;;;;;;-0.82;71.20;99776.92;1719935;82;25618;-72
2022/01/21 08:02:51;;;;;;;8.23;4.03;;;;;;;-0.59;71.48;99771.91;1719950;83;25743;-72
2022/01/21 08:05:17;;;;;;;8.80;3.37;;;;;;;-0.26;71.76;99771.47;1695554;83;25635;-72
2022/01/21 08:07:44;;;;;;;6.05;3.62;;;;;;;0.02;70.01;99774.93;1720141;83;25643;-72
2022/01/21 08:10:11;;;;;;;12.05;5.08;;;;;;;0.31;69.43;99759.52;1696166;83;27957;-72
2022/01/21 08:12:37;;;;;;;25.97;8.78;;;;;;;0.66;69.80;99775.47;1720497;83;25776;-72
2022/01/21 08:15:04;;;;;;;18.80;7.28;;;;;;;1.04;69.60;99777.55;1718621;83;25685;-71
2022/01/21 08:17:31;;;;;;;25.37;9.23;;;;;;;1.42;69.10;99761.76;1716634;83;26256;-72
2022/01/21 08:19:58;;;;;;;22.98;7.78;;;;;;;1.91;69.60;99767.23;1716801;83;25655;-71
2022/01/21 08:22:26;;;;;;;8.05;3.52;;;;;;;2.32;67.94;99771.82;1716755;83;27345;-71
2022/01/21 08:24:53;;;;;;;15.35;4.97;;;;;;;2.61;64.11;99770.74;1716811;83;25655;-72
2022/01/21 08:27:20;;;;;;;24.32;6.15;;;;;;;2.85;64.46;99772.30;1726713;83;25576;-72
2022/01/21 08:29:46;;;;;;;21.20;5.90;;;;;;;3.06;63.57;99773.05;1726791;83;25709;-72
2022/01/21 08:32:13;;;;;;;18.60;4.95;;;;;;;3.33;64.09;99757.99;1726935;83;25483;-72
2022/01/21 08:34:40;;;;;;;8.83;3.83;;;;;;;3.55;63.36;99783.03;1726818;83;27350;-72
2022/01/21 08:37:06;;;;;;;15.88;7.00;;;;;;;4.01;62.54;99783.33;1726752;83;25615;-72
2022/01/21 08:39:33;;;;;;;15.80;5.72;;;;;;;4.04;61.69;99789.47;1726728;83;25491;-73
2022/01/21 08:42:00;;;;;;;12.65;4.42;;;;;;;3.82;60.24;99781.05;1726880;82;26190;-73
2022/01/21 08:44:27;;;;;;;9.33;4.05;;;;;;;3.43;59.70;99785.78;1726895;83;25494;-73
2022/01/21 08:46:54;;;;;;;7.60;2.83;;;;;;;3.11;59.83;99793.08;1726807;83;27421;-73
2022/01/21 08:49:21;;;;;;;7.62;3.00;;;;;;;2.85;59.91;99793.67;1726558;83;25631;-73
2022/01/21 08:51:51;;;;;;;7.65;2.22;;;;;;;2.60;60.01;99793.95;1726886;83;25276;-73
2022/01/21 08:54:17;;;;;;;7.58;2.45;;;;;;;2.38;60.24;99790.25;1726444;83;25632;-73
2022/01/21 08:56:46;;;;;;;5.78;2.42;;;;;;;2.23;60.24;99789.69;1726781;83;25748;-73
2022/01/21 08:59:12;;;;;;;4.37;2.62;;;;;;;2.10;60.16;99788.88;1726718;82;27907;-73
2022/01/21 09:01:38;;;;;;;3.45;1.98;;;;;;;2.03;60.10;99793.67;1726703;82;25927;-73
2022/01/21 09:04:05;;;;;;;4.37;2.22;;;;;;;1.97;60.39;99804.84;1726812;82;25636;-73
2022/01/21 09:06:32;;;;;;;3.40;1.87;;;;;;;1.90;60.63;99797.63;1726788;83;26171;-73
2022/01/21 09:08:59;;;;;;;5.05;2.00;;;;;;;1.76;60.01;99798.66;1728353;83;25461;-71
2022/01/21 09:11:27;;;;;;;6.05;2.37;;;;;;;1.62;60.26;99800.23;1729708;83;26863;-72
2022/01/21 09:13:53;;;;;;;4.05;1.70;;;;;;;1.48;60.37;99792.71;1729543;82;25469;-72
2022/01/21 09:16:20;;;;;;;4.30;2.10;;;;;;;1.39;60.33;99796.13;1729669;83;25721;-73
2022/01/21 09:18:51;;;;;;;10.53;2.02;;;;;;;1.37;61.15;99807.05;1729631;82;26316;-72
2022/01/21 09:21:20;;;;;;;7.67;2.20;;;;;;;1.38;60.95;99795.84;1729537;82;25546;-73
2022/01/21 09:23:49;;;;;;;25.92;8.38;;;;;;;1.35;60.60;99821.70;1729693;83;27344;-72
2022/01/21 09:26:18;;;;;;;13.10;4.15;;;;;;;1.26;61.23;99810.71;1708820;83;25702;-73
2022/01/21 09:28:47;;;;;;;7.87;3.30;;;;;;;1.19;60.92;99772.84;1708821;83;26789;-72
2022/01/21 09:31:14;;;;;;;10.05;4.40;;;;;;;1.16;60.85;99800.82;1729599;83;25729;-72
2022/01/21 09:33:41;;;;;;;7.85;3.33;;;;;;;1.17;60.72;99826.38;1727244;82;25674;-73
2022/01/21 09:36:10;;;;;;;10.20;4.33;;;;;;;1.17;60.82;99799.74;1729569;82;27330;-74
2022/01/21 09:38:37;;;;;;;8.37;2.97;;;;;;;1.30;60.65;99807.81;1729810;83;25434;-75
2022/01/21 09:41:06;;;;;;;4.53;2.10;;;;;;;1.41;60.44;99810.78;1729571;82;25655;-73
2022/01/21 09:43:34;;;;;;;6.12;2.42;;;;;;;1.43;60.36;99818.02;1709051;83;25729;-74
2022/01/21 09:46:05;;;;;;;7.75;3.00;;;;;;;1.41;60.93;99799.33;1729704;83;25438;-74
2022/01/21 09:48:35;;;;;;;7.10;2.80;;;;;;;1.55;61.29;99805.80;1729450;82;27994;-72
2022/01/21 09:51:00;;;;;;;6.50;2.62;;;;;;;1.72;60.95;99832.27;1728971;82;25746;-72
2022/01/21 09:53:33;;;;;;;9.70;3.52;;;;;;;1.72;60.04;99820.27;1729636;83;25456;-73
2022/01/21 09:56:03;;;;;;;9.20;2.55;;;;;;;1.72;61.08;99830.11;1707912;83;25726;-74
2022/01/21 09:58:31;;;;;;;;;;;;;;;1.86;61.33;99841.37;1732334;82;25387;-74
2022/01/21 10:01:01;;;;;;;5.20;2.10;;;;;;;2.03;61.43;99816.34;1729942;83;27322;-74
2022/01/21 10:03:28;;;;;;;7.28;2.62;;;;;;;2.14;60.86;99811.28;1729675;83;25715;-74
2022/01/21 10:05:55;;;;;;;9.80;2.85;;;;;;;2.19;60.46;99821.17;1729661;82;25598;-73
2022/01/21 10:08:24;;;;;;;6.53;2.98;;;;;;;2.31;60.46;99820.38;1729096;83;26273;-73
2022/01/21 10:10:51;;;;;;;6.07;2.87;;;;;;;3.34;61.76;99822.98;1727027;83;25639;-73
2022/01/21 10:13:20;;;;;;;9.98;2.75;;;;;;;4.05;58.45;99817.03;1726723;83;27341;-73
2022/01/21 10:15:48;;;;;;;6.92;2.83;;;;;;;4.47;58.31;99811.66;1703598;83;25802;-73
2022/01/21 10:18:18;;;;;;;7.35;2.35;;;;;;;5.11;57.02;99799.56;1726682;82;25788;-73
2022/01/21 10:21:04;;;;;;;5.92;2.45;;;;;;;5.30;56.47;99807.69;1726674;83;25738;-74
2022/01/21 10:23:35;;;;;;;10.72;2.35;;;;;;;5.19;56.56;99813.16;1726820;83;26116;-74
2022/01/21 10:26:12;;;;;;;26.33;14.47;;;;;;;5.04;55.14;99796.69;1726817;83;27330;-73
2022/01/21 10:28:43;;;;;;;7.65;3.47;;;;;;;4.68;54.67;99810.43;1725861;83;25635;-74
2022/01/21 10:31:14;;;;;;;10.60;4.20;;;;;;;4.34;54.25;99810.95;1726739;83;25733;-75
2022/01/21 10:33:45;;;;;;;6.72;2.80;;;;;;;4.04;54.56;99818.13;1726758;83;26222;-75
2022/01/21 10:36:30;;;;;;;6.85;2.80;;;;;;;3.85;55.25;99817.42;1717573;83;25556;-73
2022/01/21 10:39:13;;;;;;;8.48;3.08;;;;;;;3.68;55.12;99799.04;1699662;84;27342;-73
2022/01/21 10:41:41;;;;;;;10.23;4.12;;;;;;;3.73;54.47;99815.06;1698212;84;25685;-73
2022/01/21 10:44:12;;;;;;;4.90;2.37;;;;;;;3.72;55.08;99792.60;1699567;84;25622;-74
2022/01/21 10:46:43;;;;;;;7.10;3.33;;;;;;;3.65;52.42;99800.12;1699277;84;25653;-73
2022/01/21 10:49:14;;;;;;;8.45;3.40;;;;;;;3.45;53.12;99800.46;1699522;84;25677;-73
2022/01/21 10:51:45;;;;;;;7.90;3.52;;;;;;;3.29;53.91;99813.09;1699283;84;27491;-76
2022/01/21 10:54:29;;;;;;;9.33;3.90;;;;;;;3.35;54.38;99789.29;1697094;84;25692;-74
2022/01/21 10:57:16;;;;;;;9.75;4.28;;;;;;;3.41;54.70;99799.97;1699389;84;25495;-73
2022/01/21 10:59:57;;;;;;;10.15;4.55;;;;;;;3.74;53.71;99797.92;1699619;84;25809;-74
2022/01/21 11:02:42;;;;;;;8.75;4.28;;;;;;;3.56;54.31;99801.23;1699288;84;25764;-74
2022/01/21 11:05:16;;;;;;;12.60;4.37;;;;;;;3.33;54.24;99798.09;1699492;84;27926;-75
2022/01/21 11:08:03;;;;;;;9.78;4.17;;;;;;;3.04;54.63;99801.92;1698921;84;25630;-74
2022/01/21 11:10:37;;;;;;;12.82;3.15;;;;;;;2.84;55.01;99804.09;1696997;83;25441;-74
2022/01/21 11:13:18;;;;;;;10.32;4.33;;;;;;;2.62;55.06;99812.38;1691642;84;26142;-74
2022/01/21 11:15:49;;;;;;;8.30;3.55;;;;;;;2.39;55.37;99805.72;1696905;84;25582;-74
2022/01/21 11:18:18;;;;;;;10.00;3.62;;;;;;;2.22;55.14;99815.31;1691583;84;27869;-73
2022/01/21 11:20:49;;;;;;;7.17;3.47;;;;;;;2.05;56.01;99817.67;1691411;84;25717;-73
2022/01/21 11:23:17;;;;;;;7.50;3.20;;;;;;;1.89;55.98;99821.39;1696569;83;25715;-73
2022/01/21 11:25:57;;;;;;;7.62;3.58;;;;;;;1.73;56.50;99822.39;1691530;84;25807;-74
2022/01/21 11:28:47;;;;;;;6.60;3.77;;;;;;;1.59;56.75;99814.08;1696959;84;25488;-74
2022/01/21 11:31:22;;;;;;;7.53;3.00;;;;;;;1.43;56.93;99810.02;1691516;84;27335;-72
2022/01/21 11:33:49;;;;;;;9.40;3.50;;;;;;;1.28;57.17;99810.73;1696640;84;25773;-72
2022/01/21 11:36:17;;;;;;;8.43;3.75;;;;;;;1.18;57.55;99810.69;1691405;84;25702;-73
2022/01/21 11:38:45;;;;;;;5.35;3.52;;;;;;;1.07;57.75;99802.35;1691402;84;26243;-73
2022/01/21 11:41:14;;;;;;;7.85;4.30;;;;;;;1.00;58.19;99804.45;1691580;84;25628;-72
2022/01/21 11:43:49;;;;;;;7.43;3.33;;;;;;;0.96;58.61;99817.48;1691677;84;27379;-73
2022/01/21 11:46:25;;;;;;;11.08;3.83;;;;;;;0.96;58.79;99800.70;1695672;83;25627;-72
2022/01/21 11:48:56;;;;;;;8.18;3.70;;;;;;;0.89;58.60;99806.25;1687853;84;25739;-74
2022/01/21 11:51:33;;;;;;;8.25;3.87;;;;;;;0.84;58.87;99815.00;1691375;84;26746;-73
2022/01/21 11:54:05;;;;;;;9.93;3.65;;;;;;;0.84;59.25;99818.20;1691662;84;25685;-74
2022/01/21 11:56:43;;;;;;;10.25;4.92;;;;;;;0.82;59.09;99812.30;1696891;84;27348;-75
2022/01/21 11:59:19;;;;;;;6.65;3.40;;;;;;;0.73;59.25;99817.30;1691340;84;25614;-75
2022/01/21 12:01:47;;;;;;;9.03;3.35;;;;;;;0.70;59.48;99827.16;1696507;84;25612;-75
2022/01/21 12:04:31;;;;;;;7.80;3.37;;;;;;;0.67;59.73;99830.32;1691629;84;26221;-74
2022/01/21 12:07:02;;;;;;;11.28;3.58;;;;;;;0.67;59.84;99824.46;1696091;83;25786;-75
2022/01/21 12:09:58;;;;;;;8.85;3.17;;;;;;;0.60;59.72;99824.41;1691550;84;26858;-75
2022/01/21 12:12:29;;;;;;;10.00;3.15;;;;;;;0.58;60.09;99823.34;1692001;84;25841;-75
2022/01/21 12:15:02;;;;;;;8.40;3.00;;;;;;;0.54;59.92;99823.55;1669563;84;25598;-75
2022/01/21 12:17:50;;;;;;;9.55;2.80;;;;;;;0.50;60.00;99807.29;1696673;82;25721;-75
2022/01/21 12:20:13;;;;;;;8.63;3.90;;;;;;;0.46;59.87;99825.34;1669136;85;25823;-74
2022/01/21 12:22:40;;;;;;;8.55;3.10;;;;;;;0.42;60.09;99817.59;1697418;84;27406;-75
2022/01/21 12:25:13;;;;;;;6.50;2.83;;;;;;;0.39;60.40;99830.08;1697367;84;25621;-74
2022/01/21 12:27:44;;;;;;;4.87;2.35;;;;;;;0.37;60.47;99844.95;1697399;84;25690;-73
2022/01/21 12:30:29;;;;;;;9.53;3.30;;;;;;;0.31;59.92;99834.80;1666161;86;25630;-73